KYNG/YNG METAR and TAF weather

Enter ICAO airport designator
Station Type Date Time Source
KYNG METAR 2022/06/30 12:51 UTC NOAA

KYNG 301251Z 23006KT 10SM FEW250 23/12 A3025 RMK AO2 SLP237 T02330122


Station Type Date Time Source
KYNG Decoded METAR 2022/06/30 12:51 UTC NOAA

YOUNGSTOWN-WARREN REG AIRPRT, OH, United States (KYNG) 41-15N 080-40W 360M
Jun 30, 2022 - 08:51 AM EDT / 2022.06.30 1251 UTC
Wind: from the SW (230 degrees) at 7 MPH (6 KT):0
Visibility: 10 mile(s):0
Sky conditions: mostly clear
Temperature: 73.9 F (23.3 C)
Dew Point: 54.0 F (12.2 C)
Relative Humidity: 49%
Pressure (altimeter): 30.25 in. Hg (1024 hPa)
ob: KYNG 301251Z 23006KT 10SM FEW250 23/12 A3025 RMK AO2 SLP237 T02330122
cycle: 13

Station Type Date Time Source
KYNG TAF 2022/06/30 12:27 UTC NOAA

TAF KYNG 301124Z 3012/0112 20007KT P6SM FEW070

Example: see airport list